Time;durP1;ratioP1;P1;durP2;ratioP2;P2;SDS_P1;SDS_P2;PMS_P1;PMS_P2;Temp;Humidity;BMP_temperature;BMP_pressure;BME280_temperature;BME280_humidity;BME280_pressure;Samples;Min_cycle;Max_cycle;Signal;HPM_P1;HPM_P2
2023/09/27 00:00:36;;;;;;;18.77;13.47;;;;;;;;;;5054456;28;20232;-82
2023/09/27 00:03:05;;;;;;;19.80;12.80;;;;;;;;;;5054813;28;20209;-82
2023/09/27 00:05:34;;;;;;;10.37;8.40;;;;;;;;;;5054571;28;20206;-82
2023/09/27 00:08:06;;;;;;;10.63;8.83;;;;;;;;;;5053939;28;20251;-84
2023/09/27 00:10:35;;;;;;;11.07;9.13;;;;;;;;;;5054845;28;20219;-84
2023/09/27 00:13:04;;;;;;;12.80;11.17;;;;;;;;;;5054731;28;20209;-84
2023/09/27 00:15:34;;;;;;;13.43;10.70;;;;;;;;;;5054444;28;20275;-84
2023/09/27 00:18:02;;;;;;;11.87;9.00;;;;;;;;;;5054632;28;20200;-84
2023/09/27 00:20:32;;;;;;;7.03;5.97;;;;;;;;;;5054879;28;20207;-84
2023/09/27 00:23:01;;;;;;;8.23;6.27;;;;;;;;;;5054586;28;20293;-85
2023/09/27 00:25:29;;;;;;;1.70;1.60;;;;;;;;;;5054008;28;20194;-82
2023/09/27 00:27:58;;;;;;;2.10;2.00;;;;;;;;;;5054336;28;20200;-84
2023/09/27 00:30:26;;;;;;;2.80;2.37;;;;;;;;;;5054453;28;20218;-84
2023/09/27 00:32:56;;;;;;;1.47;1.47;;;;;;;;;;5054198;28;20198;-85
2023/09/27 00:35:25;;;;;;;5.13;3.87;;;;;;;;;;5053509;28;20270;-84
2023/09/27 00:37:54;;;;;;;7.67;4.33;;;;;;;;;;5054216;28;20221;-84
2023/09/27 00:40:24;;;;;;;2.77;2.43;;;;;;;;;;5053965;28;20198;-86
2023/09/27 00:42:53;;;;;;;2.93;2.70;;;;;;;;;;5053611;28;20206;-84
2023/09/27 00:45:22;;;;;;;7.13;5.50;;;;;;;;;;5053365;28;20209;-84
2023/09/27 00:47:53;;;;;;;11.73;7.57;;;;;;;;;;5054190;28;20225;-84
2023/09/27 00:50:24;;;;;;;5.53;4.97;;;;;;;;;;5054088;28;20210;-84
2023/09/27 00:52:53;;;;;;;10.90;8.90;;;;;;;;;;5054277;28;20202;-84
2023/09/27 00:55:21;;;;;;;8.63;7.73;;;;;;;;;;5053554;28;20213;-85
2023/09/27 00:57:53;;;;;;;1.13;1.13;;;;;;;;;;5053864;28;20202;-84
2023/09/27 01:00:22;;;;;;;0.40;0.40;;;;;;;;;;5053510;28;20274;-84
2023/09/27 01:02:52;;;;;;;1.60;1.60;;;;;;;;;;5053017;28;20198;-84
2023/09/27 01:05:22;;;;;;;1.10;1.10;;;;;;;;;;5053404;28;20205;-84
2023/09/27 01:07:51;;;;;;;0.50;0.50;;;;;;;;;;5052601;28;20206;-84
2023/09/27 01:10:20;;;;;;;4.80;4.00;;;;;;;;;;5053322;28;20282;-84
2023/09/27 01:12:49;;;;;;;2.63;2.43;;;;;;;;;;5053371;28;20213;-84
2023/09/27 01:15:17;;;;;;;0.77;0.77;;;;;;;;;;5053367;28;20295;-82
2023/09/27 01:17:55;;;;;;;0.30;0.30;;;;;;;;;;5053349;28;20202;-82
2023/09/27 01:20:26;;;;;;;9.80;6.73;;;;;;;;;;5052871;28;20190;-82
2023/09/27 01:22:59;;;;;;;14.90;12.13;;;;;;;;;;5052975;28;20205;-82
2023/09/27 01:25:29;;;;;;;14.87;10.70;;;;;;;;;;5053148;28;20215;-82
2023/09/27 01:27:58;;;;;;;11.20;8.83;;;;;;;;;;5053173;28;20320;-82
2023/09/27 01:30:32;;;;;;;1.40;1.40;;;;;;;;;;5052978;28;20201;-82
2023/09/27 01:33:04;;;;;;;6.27;4.83;;;;;;;;;;5053364;28;20248;-82
2023/09/27 01:35:33;;;;;;;1.90;1.73;;;;;;;;;;5052698;28;20206;-82
2023/09/27 01:38:04;;;;;;;5.60;5.10;;;;;;;;;;5053030;28;20228;-82
2023/09/27 01:40:32;;;;;;;5.37;4.27;;;;;;;;;;5052682;28;20248;-82
2023/09/27 01:43:01;;;;;;;3.57;3.33;;;;;;;;;;5052836;28;20197;-85
2023/09/27 01:45:29;;;;;;;0.70;0.70;;;;;;;;;;5053348;28;20210;-84
2023/09/27 01:47:58;;;;;;;0.40;0.40;;;;;;;;;;5052696;28;20206;-84
2023/09/27 01:50:27;;;;;;;0.40;0.40;;;;;;;;;;5052193;28;20200;-85
2023/09/27 01:52:56;;;;;;;0.40;0.40;;;;;;;;;;5052777;28;20236;-85
2023/09/27 01:55:26;;;;;;;0.40;0.40;;;;;;;;;;5052409;28;20196;-84
2023/09/27 01:57:55;;;;;;;0.37;0.37;;;;;;;;;;5052627;28;20252;-84
2023/09/27 02:00:23;;;;;;;0.30;0.30;;;;;;;;;;5052103;28;20269;-84
2023/09/27 02:02:52;;;;;;;0.30;0.30;;;;;;;;;;5052528;28;20210;-84
2023/09/27 02:05:21;;;;;;;0.30;0.30;;;;;;;;;;5052358;28;20225;-84
2023/09/27 02:07:50;;;;;;;0.30;0.30;;;;;;;;;;5052192;28;20283;-82
2023/09/27 02:10:18;;;;;;;0.30;0.30;;;;;;;;;;5052352;28;20205;-82
2023/09/27 02:12:48;;;;;;;1.63;1.53;;;;;;;;;;5052629;28;20241;-83
2023/09/27 02:15:17;;;;;;;0.30;0.30;;;;;;;;;;5052441;28;20194;-82
2023/09/27 02:17:46;;;;;;;0.60;0.60;;;;;;;;;;5051565;28;20216;-82
2023/09/27 02:20:17;;;;;;;1.07;1.07;;;;;;;;;;5052366;28;20204;-82
2023/09/27 02:22:47;;;;;;;0.30;0.30;;;;;;;;;;5052335;28;20229;-82
2023/09/27 02:25:16;;;;;;;0.60;0.60;;;;;;;;;;5052015;28;20202;-82
2023/09/27 02:27:45;;;;;;;0.40;0.40;;;;;;;;;;5051805;28;20229;-82
2023/09/27 02:30:15;;;;;;;2.70;2.50;;;;;;;;;;5051970;28;20202;-82
2023/09/27 02:32:45;;;;;;;8.93;5.97;;;;;;;;;;5052274;28;20275;-82
2023/09/27 02:35:14;;;;;;;7.87;6.70;;;;;;;;;;5051266;28;20202;-82
2023/09/27 02:37:44;;;;;;;8.63;6.37;;;;;;;;;;5051548;28;20218;-82
2023/09/27 02:40:14;;;;;;;4.97;4.47;;;;;;;;;;5051886;28;20202;-82
2023/09/27 02:42:43;;;;;;;1.13;1.03;;;;;;;;;;5052189;28;20235;-82
2023/09/27 02:45:12;;;;;;;1.53;1.47;;;;;;;;;;5051324;28;20304;-82
2023/09/27 02:47:45;;;;;;;3.80;3.03;;;;;;;;;;5051772;28;20269;-82
2023/09/27 02:50:14;;;;;;;2.27;2.07;;;;;;;;;;5051965;28;20199;-82
2023/09/27 02:52:44;;;;;;;3.83;3.40;;;;;;;;;;5052009;28;20206;-82
2023/09/27 02:55:13;;;;;;;4.40;4.03;;;;;;;;;;5050944;28;20196;-82
2023/09/27 02:57:50;;;;;;;2.03;1.93;;;;;;;;;;5051850;28;20229;-80
2023/09/27 03:00:22;;;;;;;0.40;0.40;;;;;;;;;;5051691;28;20241;-82
2023/09/27 03:02:52;;;;;;;0.87;0.87;;;;;;;;;;5051417;28;20208;-82
2023/09/27 03:05:20;;;;;;;12.10;7.87;;;;;;;;;;5051241;28;20201;-82
2023/09/27 03:07:49;;;;;;;6.43;5.17;;;;;;;;;;5051748;28;20201;-84
2023/09/27 03:10:18;;;;;;;12.93;11.20;;;;;;;;;;5051717;28;20434;-84
2023/09/27 03:12:49;;;;;;;17.70;13.10;;;;;;;;;;5051444;28;20315;-84
2023/09/27 03:15:18;;;;;;;18.90;14.60;;;;;;;;;;5051660;28;20201;-84
2023/09/27 03:17:46;;;;;;;22.43;15.70;;;;;;;;;;5051825;28;20243;-83
2023/09/27 03:20:17;;;;;;;15.50;11.43;;;;;;;;;;5051626;28;20264;-84
2023/09/27 03:22:46;;;;;;;20.97;15.57;;;;;;;;;;5051107;28;20201;-84
2023/09/27 03:25:16;;;;;;;2.60;2.40;;;;;;;;;;5051710;28;20205;-84
2023/09/27 03:27:45;;;;;;;6.60;6.10;;;;;;;;;;5051856;28;20274;-84
2023/09/27 03:30:14;;;;;;;0.40;0.40;;;;;;;;;;5051481;28;20201;-84
2023/09/27 03:32:43;;;;;;;0.60;0.60;;;;;;;;;;5053663;28;20277;-84
2023/09/27 03:35:12;;;;;;;1.97;1.87;;;;;;;;;;5055395;28;20233;-84
2023/09/27 03:37:42;;;;;;;9.87;7.10;;;;;;;;;;5055464;28;20234;-85
2023/09/27 03:40:13;;;;;;;11.33;8.83;;;;;;;;;;5055143;28;20205;-85
2023/09/27 03:42:44;;;;;;;17.37;11.73;;;;;;;;;;5054700;28;20205;-84
2023/09/27 03:45:14;;;;;;;9.20;8.27;;;;;;;;;;5055127;28;20201;-84
2023/09/27 03:47:44;;;;;;;4.10;3.80;;;;;;;;;;5055406;28;20296;-84
2023/09/27 03:50:14;;;;;;;7.03;5.03;;;;;;;;;;5055302;28;20531;-84
2023/09/27 03:52:45;;;;;;;5.40;4.07;;;;;;;;;;5053918;28;20229;-84
2023/09/27 03:55:13;;;;;;;5.50;4.87;;;;;;;;;;5055681;28;20205;-85
2023/09/27 03:57:42;;;;;;;4.07;2.93;;;;;;;;;;5055042;28;20219;-84
2023/09/27 04:00:13;;;;;;;8.27;5.23;;;;;;;;;;5054529;28;20243;-85
2023/09/27 04:02:42;;;;;;;9.90;7.40;;;;;;;;;;5055248;28;20254;-84
2023/09/27 04:05:12;;;;;;;8.20;6.37;;;;;;;;;;5055323;28;20236;-84
2023/09/27 04:07:40;;;;;;;4.93;4.43;;;;;;;;;;5054612;28;20200;-85
2023/09/27 04:10:11;;;;;;;8.53;4.10;;;;;;;;;;5054468;28;20208;-85
2023/09/27 04:12:40;;;;;;;0.30;0.30;;;;;;;;;;5054695;28;20223;-82
2023/09/27 04:15:09;;;;;;;0.40;0.40;;;;;;;;;;5054586;28;20206;-82
2023/09/27 04:17:38;;;;;;;6.03;2.13;;;;;;;;;;5054457;28;20248;-82
2023/09/27 04:20:13;;;;;;;1.73;1.63;;;;;;;;;;5054249;28;20198;-81
2023/09/27 04:22:44;;;;;;;0.30;0.30;;;;;;;;;;5054517;28;20201;-81
2023/09/27 04:25:15;;;;;;;25.60;8.43;;;;;;;;;;5054596;28;20256;-81
2023/09/27 04:27:45;;;;;;;4.57;3.80;;;;;;;;;;5053891;28;20212;-82
2023/09/27 04:30:15;;;;;;;1.40;1.30;;;;;;;;;;5053970;28;20259;-82
2023/09/27 04:32:44;;;;;;;4.87;4.43;;;;;;;;;;5054042;28;20221;-82
2023/09/27 04:35:14;;;;;;;0.40;0.40;;;;;;;;;;5053965;28;20266;-82
2023/09/27 04:37:43;;;;;;;4.27;3.97;;;;;;;;;;5053687;28;20241;-82
2023/09/27 04:40:13;;;;;;;8.47;6.73;;;;;;;;;;5054180;28;20250;-82
2023/09/27 04:42:44;;;;;;;1.30;1.10;;;;;;;;;;5053587;28;20198;-82
2023/09/27 04:45:13;;;;;;;6.60;3.60;;;;;;;;;;5053055;28;20285;-82
2023/09/27 04:47:44;;;;;;;0.40;0.40;;;;;;;;;;5053213;28;20200;-82
2023/09/27 04:50:14;;;;;;;7.03;3.17;;;;;;;;;;5053686;28;20228;-82
2023/09/27 04:52:44;;;;;;;3.37;2.80;;;;;;;;;;5053790;28;20304;-84
2023/09/27 04:55:13;;;;;;;0.50;0.50;;;;;;;;;;5053564;28;20205;-84
2023/09/27 04:57:43;;;;;;;11.27;7.77;;;;;;;;;;5054000;28;20209;-84
2023/09/27 05:00:18;;;;;;;13.13;7.67;;;;;;;;;;5053730;28;20232;-84
2023/09/27 05:02:48;;;;;;;24.53;13.40;;;;;;;;;;5054127;28;20278;-84
2023/09/27 05:05:17;;;;;;;1.00;1.00;;;;;;;;;;5053375;28;20209;-84
2023/09/27 05:07:46;;;;;;;0.40;0.40;;;;;;;;;;5053409;28;20207;-82
2023/09/27 05:10:15;;;;;;;3.93;3.53;;;;;;;;;;5053578;28;20271;-82
2023/09/27 05:12:45;;;;;;;0.40;0.40;;;;;;;;;;5053299;28;20215;-82
2023/09/27 05:15:13;;;;;;;0.40;0.40;;;;;;;;;;5052469;28;20201;-82
2023/09/27 05:17:42;;;;;;;0.40;0.40;;;;;;;;;;5053567;28;20209;-82
2023/09/27 05:20:11;;;;;;;0.40;0.40;;;;;;;;;;5053354;28;20234;-82
2023/09/27 05:22:41;;;;;;;0.30;0.30;;;;;;;;;;5053058;28;20209;-82
2023/09/27 05:25:10;;;;;;;1.80;1.80;;;;;;;;;;5053011;28;20209;-82
2023/09/27 05:27:40;;;;;;;0.87;0.87;;;;;;;;;;5053862;28;20255;-82
2023/09/27 05:30:11;;;;;;;0.40;0.40;;;;;;;;;;5053359;28;20205;-82
2023/09/27 05:32:40;;;;;;;0.60;0.60;;;;;;;;;;5052784;28;20197;-82
2023/09/27 05:35:09;;;;;;;0.30;0.30;;;;;;;;;;5052969;28;20209;-82
2023/09/27 05:37:38;;;;;;;0.40;0.40;;;;;;;;;;5053308;28;20221;-82
2023/09/27 05:40:09;;;;;;;0.40;0.40;;;;;;;;;;5053196;28;20212;-81
2023/09/27 05:42:38;;;;;;;0.90;0.90;;;;;;;;;;5052572;28;20200;-80
2023/09/27 05:45:10;;;;;;;0.30;0.30;;;;;;;;;;5052964;28;20201;-81
2023/09/27 05:47:41;;;;;;;0.33;0.33;;;;;;;;;;5053291;28;20262;-80
2023/09/27 05:50:12;;;;;;;0.30;0.30;;;;;;;;;;5053693;28;20272;-81
2023/09/27 05:52:43;;;;;;;0.30;0.30;;;;;;;;;;5052406;28;20202;-80
2023/09/27 05:55:13;;;;;;;0.37;0.37;;;;;;;;;;5052319;28;20260;-80
2023/09/27 05:57:41;;;;;;;0.50;0.50;;;;;;;;;;5052940;28;20202;-81
2023/09/27 06:00:19;;;;;;;1.03;1.03;;;;;;;;;;5052586;28;20233;-80
2023/09/27 06:02:49;;;;;;;0.50;0.50;;;;;;;;;;5052302;28;20194;-80
2023/09/27 06:05:17;;;;;;;0.67;0.67;;;;;;;;;;5052559;28;20221;-81
2023/09/27 06:07:46;;;;;;;0.30;0.30;;;;;;;;;;5052763;28;20304;-80
2023/09/27 06:10:14;;;;;;;0.90;0.90;;;;;;;;;;5051969;28;20258;-81
2023/09/27 06:12:43;;;;;;;0.40;0.40;;;;;;;;;;5052980;28;20214;-80
2023/09/27 06:15:14;;;;;;;1.33;1.33;;;;;;;;;;5052920;28;20198;-80
2023/09/27 06:17:43;;;;;;;0.40;0.40;;;;;;;;;;5052186;28;20212;-81
2023/09/27 06:20:19;;;;;;;0.30;0.30;;;;;;;;;;5052213;28;20214;-81
2023/09/27 06:22:49;;;;;;;0.70;0.70;;;;;;;;;;5053077;28;20197;-81
2023/09/27 06:25:18;;;;;;;1.57;1.47;;;;;;;;;;5052454;28;20206;-82
2023/09/27 06:27:47;;;;;;;0.90;0.90;;;;;;;;;;5052049;28;20207;-81
2023/09/27 06:30:16;;;;;;;1.70;1.60;;;;;;;;;;5052053;28;20216;-81
2023/09/27 06:32:45;;;;;;;1.57;1.47;;;;;;;;;;5052377;28;20220;-81
2023/09/27 06:35:16;;;;;;;2.13;1.73;;;;;;;;;;5052263;28;20261;-83
2023/09/27 06:37:48;;;;;;;1.37;1.30;;;;;;;;;;5051871;28;20274;-83
2023/09/27 06:40:19;;;;;;;1.30;1.27;;;;;;;;;;5052525;28;20212;-83
2023/09/27 06:42:48;;;;;;;3.13;2.23;;;;;;;;;;5052697;28;20205;-83
2023/09/27 06:45:17;;;;;;;1.87;1.77;;;;;;;;;;5052153;28;20272;-83
2023/09/27 06:47:46;;;;;;;1.03;1.03;;;;;;;;;;5052241;28;20212;-83
2023/09/27 06:50:17;;;;;;;0.90;0.90;;;;;;;;;;5052121;28;20194;-84
2023/09/27 06:52:46;;;;;;;1.03;1.03;;;;;;;;;;5052608;28;20209;-85
2023/09/27 06:55:16;;;;;;;0.40;0.40;;;;;;;;;;5051533;28;20221;-83
2023/09/27 06:57:46;;;;;;;0.40;0.40;;;;;;;;;;5051715;28;20206;-83
2023/09/27 07:00:18;;;;;;;0.40;0.40;;;;;;;;;;5051809;28;20247;-83
2023/09/27 07:02:47;;;;;;;0.70;0.70;;;;;;;;;;5051987;28;20292;-83
2023/09/27 07:05:21;;;;;;;0.40;0.40;;;;;;;;;;5051546;28;20201;-82
2023/09/27 07:07:49;;;;;;;0.40;0.40;;;;;;;;;;5054987;28;20205;-82
2023/09/27 07:10:18;;;;;;;0.43;0.43;;;;;;;;;;5055740;28;20289;-83
2023/09/27 07:12:47;;;;;;;0.47;0.47;;;;;;;;;;5056159;28;20205;-82
2023/09/27 07:15:15;;;;;;;0.40;0.40;;;;;;;;;;5055324;28;20222;-83
2023/09/27 07:17:44;;;;;;;2.80;2.70;;;;;;;;;;5056214;28;20210;-83
2023/09/27 07:20:26;;;;;;;8.07;5.33;;;;;;;;;;5056318;28;20202;-83
2023/09/27 07:22:56;;;;;;;10.10;6.03;;;;;;;;;;5056171;28;20210;-83
2023/09/27 07:25:25;;;;;;;0.90;0.90;;;;;;;;;;5055074;28;20190;-82
2023/09/27 07:27:54;;;;;;;3.57;3.37;;;;;;;;;;5056008;28;20293;-83
2023/09/27 07:30:24;;;;;;;33.57;14.70;;;;;;;;;;5055449;28;20209;-82
2023/09/27 07:32:53;;;;;;;27.53;12.13;;;;;;;;;;5055396;28;20321;-81
2023/09/27 07:35:27;;;;;;;3.97;2.53;;;;;;;;;;5055090;28;20246;-80
2023/09/27 07:37:56;;;;;;;2.23;1.43;;;;;;;;;;5055546;28;20472;-80
2023/09/27 07:40:24;;;;;;;1.23;1.23;;;;;;;;;;5055681;28;20203;-80
2023/09/27 07:42:53;;;;;;;1.60;1.53;;;;;;;;;;5055559;28;20230;-81
2023/09/27 07:45:22;;;;;;;1.50;1.37;;;;;;;;;;5055122;28;20212;-80
2023/09/27 07:47:51;;;;;;;0.93;0.93;;;;;;;;;;5055955;28;20202;-80
2023/09/27 07:50:21;;;;;;;2.03;1.93;;;;;;;;;;5055543;28;20271;-77
2023/09/27 07:52:51;;;;;;;0.60;0.60;;;;;;;;;;5055400;28;20198;-77
2023/09/27 07:55:21;;;;;;;0.40;0.40;;;;;;;;;;5055066;28;20210;-77
2023/09/27 07:57:52;;;;;;;4.57;2.50;;;;;;;;;;5055219;28;20194;-81
2023/09/27 08:00:27;;;;;;;2.60;2.40;;;;;;;;;;5055346;28;20236;-81
2023/09/27 08:02:57;;;;;;;15.30;7.40;;;;;;;;;;5054491;28;20186;-81
2023/09/27 08:05:26;;;;;;;13.90;10.23;;;;;;;;;;5055120;28;20252;-81
2023/09/27 08:07:57;;;;;;;21.57;14.63;;;;;;;;;;5055215;28;20203;-81
2023/09/27 08:10:25;;;;;;;24.50;11.10;;;;;;;;;;5055036;28;20273;-81
2023/09/27 08:12:55;;;;;;;23.37;10.90;;;;;;;;;;5055486;28;20236;-80
2023/09/27 08:15:23;;;;;;;25.47;14.90;;;;;;;;;;5055232;28;20210;-80
2023/09/27 08:17:52;;;;;;;10.93;6.50;;;;;;;;;;5055282;28;20228;-80
2023/09/27 08:20:20;;;;;;;29.40;17.70;;;;;;;;;;5055263;28;20205;-79
2023/09/27 08:22:49;;;;;;;23.67;15.33;;;;;;;;;;5055041;28;20229;-79
2023/09/27 08:25:19;;;;;;;27.33;17.43;;;;;;;;;;5055120;28;20202;-79
2023/09/27 08:27:50;;;;;;;4.43;4.03;;;;;;;;;;5054979;28;20202;-79
2023/09/27 08:30:20;;;;;;;4.03;3.57;;;;;;;;;;5054927;28;20268;-79
2023/09/27 08:32:49;;;;;;;2.10;2.10;;;;;;;;;;5055039;28;20194;-79
2023/09/27 08:35:17;;;;;;;3.77;3.13;;;;;;;;;;5055123;28;20313;-80
2023/09/27 08:37:46;;;;;;;14.13;10.60;;;;;;;;;;5054877;28;20317;-79
2023/09/27 08:40:15;;;;;;;23.57;16.90;;;;;;;;;;5054930;28;20194;-79
2023/09/27 08:42:45;;;;;;;4.03;3.03;;;;;;;;;;5054970;28;20206;-80
2023/09/27 08:45:14;;;;;;;22.20;15.80;;;;;;;;;;5054846;28;20213;-80
2023/09/27 08:47:43;;;;;;;6.40;2.10;;;;;;;;;;5054524;28;20202;-79
2023/09/27 08:50:13;;;;;;;1.93;1.70;;;;;;;;;;5054291;28;20263;-79
2023/09/27 08:52:46;;;;;;;7.00;5.53;;;;;;;;;;5054752;28;20289;-79
2023/09/27 08:55:15;;;;;;;8.70;6.03;;;;;;;;;;5054583;28;20258;-79
2023/09/27 08:57:47;;;;;;;5.67;3.80;;;;;;;;;;5054567;28;20243;-79
2023/09/27 09:00:19;;;;;;;2.33;2.03;;;;;;;;;;5054646;28;20230;-79
2023/09/27 09:02:52;;;;;;;2.20;2.10;;;;;;;;;;5054753;28;20298;-79
2023/09/27 09:05:22;;;;;;;1.83;1.73;;;;;;;;;;5054201;28;20197;-80
2023/09/27 09:07:51;;;;;;;2.80;2.60;;;;;;;;;;5054157;28;20223;-79
2023/09/27 09:10:21;;;;;;;3.17;2.97;;;;;;;;;;5054626;28;20195;-80
2023/09/27 09:12:52;;;;;;;4.90;4.40;;;;;;;;;;5054802;28;20213;-80
2023/09/27 09:15:35;;;;;;;20.97;13.00;;;;;;;;;;5054238;28;20309;-80
2023/09/27 09:18:08;;;;;;;27.63;16.93;;;;;;;;;;5053824;28;20203;-79
2023/09/27 09:20:50;;;;;;;21.20;13.40;;;;;;;;;;5054028;28;20234;-80
2023/09/27 09:23:29;;;;;;;14.53;11.10;;;;;;;;;;5053844;28;20301;-79
2023/09/27 09:25:58;;;;;;;8.73;5.83;;;;;;;;;;5053561;28;20199;-80
2023/09/27 09:28:29;;;;;;;9.17;7.47;;;;;;;;;;5054026;28;20204;-80
2023/09/27 09:30:58;;;;;;;9.23;7.43;;;;;;;;;;5053537;28;20226;-80
2023/09/27 09:33:28;;;;;;;0.90;0.90;;;;;;;;;;5053826;28;20307;-80
2023/09/27 09:35:57;;;;;;;5.83;3.07;;;;;;;;;;5053623;28;20247;-80
2023/09/27 09:38:28;;;;;;;2.40;2.17;;;;;;;;;;5053520;28;20450;-80
2023/09/27 09:40:58;;;;;;;8.93;7.97;;;;;;;;;;5054216;28;20207;-80
2023/09/27 09:43:31;;;;;;;14.97;11.17;;;;;;;;;;5053313;28;20208;-81
2023/09/27 09:46:00;;;;;;;0.80;0.80;;;;;;;;;;5053798;28;20299;-80
2023/09/27 09:48:29;;;;;;;14.73;8.87;;;;;;;;;;5053290;28;20202;-80
2023/09/27 09:51:06;;;;;;;11.53;7.30;;;;;;;;;;5053480;28;20196;-81
2023/09/27 09:53:38;;;;;;;6.40;5.90;;;;;;;;;;5053440;28;20215;-81
2023/09/27 09:56:08;;;;;;;9.43;7.27;;;;;;;;;;5053736;28;20214;-82
2023/09/27 09:59:03;;;;;;;8.60;6.43;;;;;;;;;;5053436;28;20205;-81
2023/09/27 10:01:36;;;;;;;14.80;8.87;;;;;;;;;;5053145;28;20231;-82
2023/09/27 10:04:07;;;;;;;4.57;2.70;;;;;;;;;;5052821;28;20200;-81
2023/09/27 10:06:37;;;;;;;3.60;2.63;;;;;;;;;;5053640;28;20218;-81
2023/09/27 10:09:17;;;;;;;2.60;2.40;;;;;;;;;;5053728;28;20206;-79
2023/09/27 10:11:46;;;;;;;9.03;5.23;;;;;;;;;;5053137;28;20207;-79
2023/09/27 10:14:21;;;;;;;7.60;5.10;;;;;;;;;;5053491;28;20243;-81
2023/09/27 10:16:51;;;;;;;5.47;4.80;;;;;;;;;;5053042;28;20228;-81
2023/09/27 10:19:29;;;;;;;8.93;5.77;;;;;;;;;;5053258;28;20200;-82
2023/09/27 10:22:13;;;;;;;4.67;4.23;;;;;;;;;;5052854;28;20208;-82
2023/09/27 10:24:43;;;;;;;5.73;3.47;;;;;;;;;;5052987;28;20198;-81
2023/09/27 10:27:12;;;;;;;8.07;4.63;;;;;;;;;;5052893;28;20196;-82
2023/09/27 10:29:55;;;;;;;4.57;4.13;;;;;;;;;;5052871;28;20210;-82
2023/09/27 10:32:25;;;;;;;7.43;4.73;;;;;;;;;;5052536;28;20210;-82
2023/09/27 10:34:53;;;;;;;3.73;3.50;;;;;;;;;;5053341;28;20241;-82
2023/09/27 10:37:55;;;;;;;2.40;2.20;;;;;;;;;;5052533;28;20238;-82
2023/09/27 10:40:24;;;;;;;11.07;6.13;;;;;;;;;;4990565;28;20296;-81
2023/09/27 10:42:52;;;;;;;0.77;0.77;;;;;;;;;;4991285;28;20212;-82
2023/09/27 10:45:21;;;;;;;7.13;4.67;;;;;;;;;;5020058;28;20269;-82
2023/09/27 10:47:53;;;;;;;8.63;5.50;;;;;;;;;;5052389;28;20300;-82
2023/09/27 10:50:29;;;;;;;3.23;2.73;;;;;;;;;;5051852;28;20212;-82
2023/09/27 10:53:13;;;;;;;0.63;0.63;;;;;;;;;;5052500;28;20213;-82
2023/09/27 10:55:41;;;;;;;2.93;2.73;;;;;;;;;;5052067;28;20340;-82
2023/09/27 10:58:15;;;;;;;12.37;8.43;;;;;;;;;;5051967;28;20194;-82
2023/09/27 11:00:53;;;;;;;2.47;2.27;;;;;;;;;;5052498;28;20239;-81
2023/09/27 11:03:24;;;;;;;6.87;5.97;;;;;;;;;;5053024;28;20205;-82
2023/09/27 11:05:53;;;;;;;6.80;5.03;;;;;;;;;;5052177;28;20294;-82
2023/09/27 11:08:22;;;;;;;4.23;3.17;;;;;;;;;;5052404;28;20206;-82
2023/09/27 11:10:52;;;;;;;7.13;4.50;;;;;;;;;;5052494;28;20265;-81
2023/09/27 11:13:21;;;;;;;1.03;1.03;;;;;;;;;;5052472;28;20212;-81
2023/09/27 11:15:50;;;;;;;2.03;1.57;;;;;;;;;;5052249;28;20215;-82
2023/09/27 11:18:19;;;;;;;5.40;3.30;;;;;;;;;;5052174;28;20227;-81
2023/09/27 11:20:49;;;;;;;3.67;2.43;;;;;;;;;;5052308;28;20202;-81
2023/09/27 11:23:19;;;;;;;4.20;2.67;;;;;;;;;;5052311;28;20209;-81
2023/09/27 11:25:49;;;;;;;0.30;0.30;;;;;;;;;;5051936;28;20216;-81
2023/09/27 11:28:18;;;;;;;1.50;1.17;;;;;;;;;;5052116;28;20282;-82
2023/09/27 11:30:46;;;;;;;3.03;2.27;;;;;;;;;;5052244;28;20195;-82
2023/09/27 11:33:16;;;;;;;2.03;1.90;;;;;;;;;;5052100;28;20208;-81
2023/09/27 11:35:50;;;;;;;2.63;2.43;;;;;;;;;;5051661;28;20277;-81
2023/09/27 11:38:20;;;;;;;0.80;0.80;;;;;;;;;;5051853;28;20222;-81
2023/09/27 11:40:48;;;;;;;8.50;3.07;;;;;;;;;;5052157;28;20204;-81
2023/09/27 11:43:17;;;;;;;10.07;5.50;;;;;;;;;;5052397;28;20214;-82
2023/09/27 11:45:47;;;;;;;9.37;4.33;;;;;;;;;;5051521;28;20208;-81
2023/09/27 11:48:16;;;;;;;4.57;2.80;;;;;;;;;;5052156;28;20311;-81
2023/09/27 11:50:46;;;;;;;2.17;1.17;;;;;;;;;;5052332;28;20210;-82
2023/09/27 11:53:16;;;;;;;3.70;1.53;;;;;;;;;;5053730;28;20193;-82
2023/09/27 11:55:45;;;;;;;5.40;3.37;;;;;;;;;;5055630;28;20249;-81
2023/09/27 11:58:13;;;;;;;0.97;0.97;;;;;;;;;;5055812;28;20229;-82
2023/09/27 12:00:42;;;;;;;4.50;3.47;;;;;;;;;;5055451;28;20241;-82
2023/09/27 12:03:10;;;;;;;2.20;2.00;;;;;;;;;;5055702;28;20216;-82
2023/09/27 12:05:39;;;;;;;3.30;2.40;;;;;;;;;;5055888;28;20278;-82
2023/09/27 12:08:09;;;;;;;2.03;1.77;;;;;;;;;;5055699;28;20226;-81
2023/09/27 12:10:39;;;;;;;1.40;1.17;;;;;;;;;;5055687;28;20206;-82
2023/09/27 12:13:07;;;;;;;7.17;3.93;;;;;;;;;;5055204;28;20201;-81
2023/09/27 12:15:36;;;;;;;4.27;1.57;;;;;;;;;;5055302;28;20201;-82
2023/09/27 12:18:04;;;;;;;3.33;1.23;;;;;;;;;;5054822;28;20223;-81
2023/09/27 12:20:33;;;;;;;2.70;2.20;;;;;;;;;;5054915;28;20232;-82
2023/09/27 12:23:10;;;;;;;3.23;2.47;;;;;;;;;;5054687;28;20248;-82
2023/09/27 12:25:41;;;;;;;0.73;0.73;;;;;;;;;;5055074;28;20204;-81
2023/09/27 12:28:11;;;;;;;3.10;2.77;;;;;;;;;;5055332;28;20304;-81
2023/09/27 12:30:39;;;;;;;4.37;2.50;;;;;;;;;;5054567;28;20292;-81
2023/09/27 12:33:08;;;;;;;2.07;1.97;;;;;;;;;;5054501;28;20202;-82
2023/09/27 12:35:37;;;;;;;2.67;1.57;;;;;;;;;;5054856;28;20235;-81
2023/09/27 12:38:06;;;;;;;1.50;1.23;;;;;;;;;;5055138;28;20274;-81
2023/09/27 12:40:34;;;;;;;18.23;4.97;;;;;;;;;;5054527;28;20211;-82
2023/09/27 12:43:05;;;;;;;4.80;2.43;;;;;;;;;;5054665;28;20208;-82
2023/09/27 12:45:39;;;;;;;0.67;0.67;;;;;;;;;;5054449;28;20224;-81
2023/09/27 12:48:08;;;;;;;5.67;3.40;;;;;;;;;;5054534;28;20195;-82
2023/09/27 12:50:40;;;;;;;0.93;0.93;;;;;;;;;;5053852;28;20295;-82
2023/09/27 12:53:09;;;;;;;2.07;1.90;;;;;;;;;;5054916;28;20201;-82
2023/09/27 12:55:41;;;;;;;8.00;2.20;;;;;;;;;;5054720;28;20200;-82
2023/09/27 12:58:11;;;;;;;0.43;0.43;;;;;;;;;;5054608;28;20227;-82
2023/09/27 13:00:40;;;;;;;3.17;1.83;;;;;;;;;;5053866;28;20254;-82
2023/09/27 13:03:09;;;;;;;2.43;2.23;;;;;;;;;;5054705;28;20242;-82
2023/09/27 13:05:38;;;;;;;2.40;1.83;;;;;;;;;;5053271;28;20245;-83
2023/09/27 13:08:07;;;;;;;1.47;1.37;;;;;;;;;;5054624;28;20274;-82
2023/09/27 13:10:38;;;;;;;2.20;2.00;;;;;;;;;;5054517;28;20204;-82
2023/09/27 13:13:09;;;;;;;3.70;2.33;;;;;;;;;;5055128;28;20240;-82
2023/09/27 13:15:39;;;;;;;11.60;1.70;;;;;;;;;;5054023;28;20201;-82
2023/09/27 13:18:08;;;;;;;1.90;1.47;;;;;;;;;;5054033;28;20225;-82
2023/09/27 13:20:37;;;;;;;1.03;0.93;;;;;;;;;;5054120;28;20295;-83
2023/09/27 13:23:05;;;;;;;2.33;1.67;;;;;;;;;;5054588;28;20240;-82
2023/09/27 13:25:34;;;;;;;5.50;2.80;;;;;;;;;;5054134;28;20258;-82
2023/09/27 13:28:03;;;;;;;2.63;2.27;;;;;;;;;;5053518;28;20253;-82
2023/09/27 13:30:32;;;;;;;1.20;1.10;;;;;;;;;;5053984;28;20205;-82
2023/09/27 13:33:06;;;;;;;1.57;1.30;;;;;;;;;;5054213;28;20204;-82
2023/09/27 13:35:34;;;;;;;3.60;2.40;;;;;;;;;;5053296;28;20206;-82
2023/09/27 13:38:07;;;;;;;5.00;2.00;;;;;;;;;;5053780;28;20228;-82
2023/09/27 13:40:35;;;;;;;2.40;2.20;;;;;;;;;;5053852;28;20209;-82
2023/09/27 13:43:04;;;;;;;3.43;1.57;;;;;;;;;;5054571;28;20213;-82
2023/09/27 13:45:33;;;;;;;0.40;0.40;;;;;;;;;;5053384;28;20189;-82
2023/09/27 13:48:03;;;;;;;6.97;3.80;;;;;;;;;;5053577;28;20234;-82
2023/09/27 13:50:35;;;;;;;0.33;0.33;;;;;;;;;;5053835;28;20211;-82
2023/09/27 13:53:04;;;;;;;5.67;3.13;;;;;;;;;;5053323;28;20259;-81
2023/09/27 13:55:33;;;;;;;6.20;2.93;;;;;;;;;;5053198;28;20201;-82
2023/09/27 13:58:01;;;;;;;5.40;3.83;;;;;;;;;;5053622;28;20221;-82
2023/09/27 14:00:30;;;;;;;5.17;3.00;;;;;;;;;;5054004;28;20247;-84
2023/09/27 14:02:59;;;;;;;4.53;3.03;;;;;;;;;;5053709;28;20209;-82
2023/09/27 14:05:27;;;;;;;4.03;3.67;;;;;;;;;;5052881;28;20197;-82
2023/09/27 14:07:58;;;;;;;3.20;2.97;;;;;;;;;;5054520;28;20196;-82
2023/09/27 14:10:26;;;;;;;3.73;1.83;;;;;;;;;;5053733;28;20250;-82
2023/09/27 14:12:56;;;;;;;2.57;1.80;;;;;;;;;;5053600;28;20240;-84
2023/09/27 14:15:25;;;;;;;3.97;2.60;;;;;;;;;;5052207;28;20234;-82
2023/09/27 14:17:53;;;;;;;2.93;2.63;;;;;;;;;;5053585;28;20217;-82
2023/09/27 14:20:22;;;;;;;2.77;2.07;;;;;;;;;;5053567;28;20331;-83
2023/09/27 14:22:52;;;;;;;4.63;4.23;;;;;;;;;;5052754;28;20216;-83
2023/09/27 14:25:22;;;;;;;6.23;3.17;;;;;;;;;;5053264;28;20228;-82
2023/09/27 14:27:51;;;;;;;1.20;1.07;;;;;;;;;;5053222;28;20202;-82
2023/09/27 14:30:20;;;;;;;3.80;3.17;;;;;;;;;;5052964;28;20198;-83
2023/09/27 14:32:48;;;;;;;4.50;2.83;;;;;;;;;;5052669;28;20202;-82
2023/09/27 14:35:17;;;;;;;5.17;4.07;;;;;;;;;;5052857;28;20206;-83
2023/09/27 14:37:46;;;;;;;4.80;2.53;;;;;;;;;;5052597;28;20255;-83
2023/09/27 14:40:14;;;;;;;6.63;3.47;;;;;;;;;;5053043;28;20290;-83
2023/09/27 14:42:44;;;;;;;2.20;1.83;;;;;;;;;;5053253;28;20208;-83
2023/09/27 14:45:13;;;;;;;2.03;1.73;;;;;;;;;;5053099;28;20336;-83
2023/09/27 14:47:59;;;;;;;2.27;2.13;;;;;;;;;;5052678;28;20194;-82
2023/09/27 14:50:28;;;;;;;2.67;2.03;;;;;;;;;;5052576;28;20256;-83
2023/09/27 14:52:56;;;;;;;0.90;0.87;;;;;;;;;;5052645;28;20210;-82
2023/09/27 14:55:25;;;;;;;1.67;1.57;;;;;;;;;;5052560;28;20203;-83
2023/09/27 14:57:55;;;;;;;1.53;1.23;;;;;;;;;;5052390;28;20320;-83